sensor_id;sensor_type;location;lat;lon;timestamp;temperature;humidity
26503;DHT22;14177;51.520;6.764;2023-06-22T00:00:07;22.30;99.90
26503;DHT22;14177;51.520;6.764;2023-06-22T00:02:52;22.30;99.90
26503;DHT22;14177;51.520;6.764;2023-06-22T00:05:33;22.30;99.90
26503;DHT22;14177;51.520;6.764;2023-06-22T00:08:15;22.20;99.90
26503;DHT22;14177;51.520;6.764;2023-06-22T00:10:56;22.10;99.90
26503;DHT22;14177;51.520;6.764;2023-06-22T00:13:39;22.10;99.90
26503;DHT22;14177;51.520;6.764;2023-06-22T00:16:20;22.20;99.90
26503;DHT22;14177;51.520;6.764;2023-06-22T00:19:01;22.10;99.90
26503;DHT22;14177;51.520;6.764;2023-06-22T00:21:43;22.10;99.90
26503;DHT22;14177;51.520;6.764;2023-06-22T00:24:27;22.10;99.90
26503;DHT22;14177;51.520;6.764;2023-06-22T00:27:07;22.10;99.90
26503;DHT22;14177;51.520;6.764;2023-06-22T00:29:48;22.10;99.90
26503;DHT22;14177;51.520;6.764;2023-06-22T00:32:15;22.10;99.90
26503;DHT22;14177;51.520;6.764;2023-06-22T00:34:58;22.00;99.90
26503;DHT22;14177;51.520;6.764;2023-06-22T00:37:40;22.00;99.90
26503;DHT22;14177;51.520;6.764;2023-06-22T00:40:10;22.00;99.90
26503;DHT22;14177;51.520;6.764;2023-06-22T00:42:38;21.90;99.90
26503;DHT22;14177;51.520;6.764;2023-06-22T00:45:06;21.90;99.90
26503;DHT22;14177;51.520;6.764;2023-06-22T00:47:53;21.90;99.90
26503;DHT22;14177;51.520;6.764;2023-06-22T00:50:38;21.90;99.90
26503;DHT22;14177;51.520;6.764;2023-06-22T00:53:08;21.90;99.90
26503;DHT22;14177;51.520;6.764;2023-06-22T00:55:44;21.90;99.90
26503;DHT22;14177;51.520;6.764;2023-06-22T00:58:27;21.80;99.90
26503;DHT22;14177;51.520;6.764;2023-06-22T01:01:08;21.80;99.90
26503;DHT22;14177;51.520;6.764;2023-06-22T01:03:50;21.80;99.90
26503;DHT22;14177;51.520;6.764;2023-06-22T01:06:35;21.70;99.90
26503;DHT22;14177;51.520;6.764;2023-06-22T01:09:22;21.70;99.90
26503;DHT22;14177;51.520;6.764;2023-06-22T01:12:01;21.70;99.90
26503;DHT22;14177;51.520;6.764;2023-06-22T01:14:50;21.60;99.90
26503;DHT22;14177;51.520;6.764;2023-06-22T01:17:40;21.60;99.90
26503;DHT22;14177;51.520;6.764;2023-06-22T01:20:24;21.60;99.90
26503;DHT22;14177;51.520;6.764;2023-06-22T01:26:35;21.50;99.90
26503;DHT22;14177;51.520;6.764;2023-06-22T01:29:21;21.50;99.90
26503;DHT22;14177;51.520;6.764;2023-06-22T01:32:05;21.50;99.90
26503;DHT22;14177;51.520;6.764;2023-06-22T01:34:47;21.40;99.90
26503;DHT22;14177;51.520;6.764;2023-06-22T01:37:32;21.50;99.90
26503;DHT22;14177;51.520;6.764;2023-06-22T01:40:15;21.40;99.90
26503;DHT22;14177;51.520;6.764;2023-06-22T01:42:59;21.40;99.90
26503;DHT22;14177;51.520;6.764;2023-06-22T01:45:35;21.40;99.90
26503;DHT22;14177;51.520;6.764;2023-06-22T01:48:02;21.30;99.90
26503;DHT22;14177;51.520;6.764;2023-06-22T01:50:30;21.30;99.90
26503;DHT22;14177;51.520;6.764;2023-06-22T01:52:57;21.30;99.90
26503;DHT22;14177;51.520;6.764;2023-06-22T01:55:25;21.20;99.90
26503;DHT22;14177;51.520;6.764;2023-06-22T01:57:52;21.20;99.90
26503;DHT22;14177;51.520;6.764;2023-06-22T02:00:21;21.20;99.90
26503;DHT22;14177;51.520;6.764;2023-06-22T02:03:19;21.20;99.90
26503;DHT22;14177;51.520;6.764;2023-06-22T02:05:55;21.20;99.90
26503;DHT22;14177;51.520;6.764;2023-06-22T02:08:39;21.20;99.90
26503;DHT22;14177;51.520;6.764;2023-06-22T02:11:09;21.20;99.90
26503;DHT22;14177;51.520;6.764;2023-06-22T02:13:39;21.30;99.90
26503;DHT22;14177;51.520;6.764;2023-06-22T02:16:11;21.20;99.90
26503;DHT22;14177;51.520;6.764;2023-06-22T02:18:49;21.30;99.90
26503;DHT22;14177;51.520;6.764;2023-06-22T02:21:20;21.20;99.90
26503;DHT22;14177;51.520;6.764;2023-06-22T02:23:47;21.30;99.90
26503;DHT22;14177;51.520;6.764;2023-06-22T02:26:16;21.20;99.90
26503;DHT22;14177;51.520;6.764;2023-06-22T02:28:44;21.20;99.90
26503;DHT22;14177;51.520;6.764;2023-06-22T02:31:12;21.20;99.90
26503;DHT22;14177;51.520;6.764;2023-06-22T02:33:39;21.20;99.90
26503;DHT22;14177;51.520;6.764;2023-06-22T02:36:07;21.20;99.90
26503;DHT22;14177;51.520;6.764;2023-06-22T02:38:36;21.20;99.90
26503;DHT22;14177;51.520;6.764;2023-06-22T02:41:03;21.10;99.90
26503;DHT22;14177;51.520;6.764;2023-06-22T02:43:30;21.10;99.90
26503;DHT22;14177;51.520;6.764;2023-06-22T02:45:57;21.10;99.90
26503;DHT22;14177;51.520;6.764;2023-06-22T02:48:24;21.10;99.90
26503;DHT22;14177;51.520;6.764;2023-06-22T02:50:52;21.00;99.90
26503;DHT22;14177;51.520;6.764;2023-06-22T02:53:19;21.00;99.90
26503;DHT22;14177;51.520;6.764;2023-06-22T02:55:47;21.00;99.90
26503;DHT22;14177;51.520;6.764;2023-06-22T02:58:16;21.00;99.90
26503;DHT22;14177;51.520;6.764;2023-06-22T03:00:43;21.00;99.90
26503;DHT22;14177;51.520;6.764;2023-06-22T03:03:10;20.90;99.90
26503;DHT22;14177;51.520;6.764;2023-06-22T03:05:37;20.90;99.90
26503;DHT22;14177;51.520;6.764;2023-06-22T03:08:04;20.80;99.90
26503;DHT22;14177;51.520;6.764;2023-06-22T03:10:33;20.80;99.90
26503;DHT22;14177;51.520;6.764;2023-06-22T03:13:00;20.80;99.90
26503;DHT22;14177;51.520;6.764;2023-06-22T03:15:27;20.80;99.90
26503;DHT22;14177;51.520;6.764;2023-06-22T03:17:56;20.80;99.90
26503;DHT22;14177;51.520;6.764;2023-06-22T03:20:27;20.80;99.90
26503;DHT22;14177;51.520;6.764;2023-06-22T03:23:00;20.80;99.90
26503;DHT22;14177;51.520;6.764;2023-06-22T03:25:27;20.70;99.90
26503;DHT22;14177;51.520;6.764;2023-06-22T03:27:54;20.70;99.90
26503;DHT22;14177;51.520;6.764;2023-06-22T03:30:22;20.70;99.90
26503;DHT22;14177;51.520;6.764;2023-06-22T03:32:50;20.70;99.90
26503;DHT22;14177;51.520;6.764;2023-06-22T03:35:18;20.70;99.90
26503;DHT22;14177;51.520;6.764;2023-06-22T03:37:45;20.60;99.90
26503;DHT22;14177;51.520;6.764;2023-06-22T03:40:12;20.70;99.90
26503;DHT22;14177;51.520;6.764;2023-06-22T03:42:40;20.60;99.90
26503;DHT22;14177;51.520;6.764;2023-06-22T03:45:19;20.60;99.90
26503;DHT22;14177;51.520;6.764;2023-06-22T03:47:46;20.60;99.90
26503;DHT22;14177;51.520;6.764;2023-06-22T03:50:13;20.50;99.90
26503;DHT22;14177;51.520;6.764;2023-06-22T03:52:41;20.50;99.90
26503;DHT22;14177;51.520;6.764;2023-06-22T03:55:08;20.50;99.90
26503;DHT22;14177;51.520;6.764;2023-06-22T03:57:36;20.50;99.90
26503;DHT22;14177;51.520;6.764;2023-06-22T04:00:03;20.50;99.90
26503;DHT22;14177;51.520;6.764;2023-06-22T04:02:37;20.40;99.90
26503;DHT22;14177;51.520;6.764;2023-06-22T04:05:05;20.40;99.90
26503;DHT22;14177;51.520;6.764;2023-06-22T04:07:32;20.40;99.90
26503;DHT22;14177;51.520;6.764;2023-06-22T04:10:14;20.40;99.90
26503;DHT22;14177;51.520;6.764;2023-06-22T04:12:50;20.40;99.90
26503;DHT22;14177;51.520;6.764;2023-06-22T04:15:25;20.40;99.90
26503;DHT22;14177;51.520;6.764;2023-06-22T04:18:06;20.50;99.90
26503;DHT22;14177;51.520;6.764;2023-06-22T04:20:39;20.50;99.90
26503;DHT22;14177;51.520;6.764;2023-06-22T04:23:20;20.50;99.90
26503;DHT22;14177;51.520;6.764;2023-06-22T04:26:01;20.60;99.90
26503;DHT22;14177;51.520;6.764;2023-06-22T04:28:30;20.60;99.90
26503;DHT22;14177;51.520;6.764;2023-06-22T04:31:02;20.70;99.90
26503;DHT22;14177;51.520;6.764;2023-06-22T04:33:34;20.70;99.90
26503;DHT22;14177;51.520;6.764;2023-06-22T04:36:05;20.80;99.90
26503;DHT22;14177;51.520;6.764;2023-06-22T04:38:32;20.80;99.90
26503;DHT22;14177;51.520;6.764;2023-06-22T04:41:01;20.80;99.90
26503;DHT22;14177;51.520;6.764;2023-06-22T04:43:30;20.90;99.90
26503;DHT22;14177;51.520;6.764;2023-06-22T04:46:00;20.90;99.90
26503;DHT22;14177;51.520;6.764;2023-06-22T04:48:33;20.90;99.90
26503;DHT22;14177;51.520;6.764;2023-06-22T04:51:10;20.90;99.90
26503;DHT22;14177;51.520;6.764;2023-06-22T04:53:37;20.90;99.90
26503;DHT22;14177;51.520;6.764;2023-06-22T04:56:04;20.90;99.90
26503;DHT22;14177;51.520;6.764;2023-06-22T04:58:32;21.00;99.90
26503;DHT22;14177;51.520;6.764;2023-06-22T05:00:59;21.00;99.90
26503;DHT22;14177;51.520;6.764;2023-06-22T05:03:26;21.10;99.90
26503;DHT22;14177;51.520;6.764;2023-06-22T05:05:53;21.10;99.90
26503;DHT22;14177;51.520;6.764;2023-06-22T05:08:22;21.10;99.90
26503;DHT22;14177;51.520;6.764;2023-06-22T05:11:07;21.10;99.90
26503;DHT22;14177;51.520;6.764;2023-06-22T05:13:37;21.10;99.90
26503;DHT22;14177;51.520;6.764;2023-06-22T05:16:17;21.10;99.90
26503;DHT22;14177;51.520;6.764;2023-06-22T05:19:04;21.10;99.90
26503;DHT22;14177;51.520;6.764;2023-06-22T05:21:45;21.10;99.90
26503;DHT22;14177;51.520;6.764;2023-06-22T05:24:14;21.10;99.90
26503;DHT22;14177;51.520;6.764;2023-06-22T05:26:55;21.10;99.90
26503;DHT22;14177;51.520;6.764;2023-06-22T05:29:37;21.10;99.90
26503;DHT22;14177;51.520;6.764;2023-06-22T05:32:05;21.20;99.90
26503;DHT22;14177;51.520;6.764;2023-06-22T05:34:32;21.20;99.90
26503;DHT22;14177;51.520;6.764;2023-06-22T05:36:59;21.20;99.90
26503;DHT22;14177;51.520;6.764;2023-06-22T05:39:26;21.20;99.90
26503;DHT22;14177;51.520;6.764;2023-06-22T05:41:53;21.30;99.90
26503;DHT22;14177;51.520;6.764;2023-06-22T05:44:20;21.20;99.90
26503;DHT22;14177;51.520;6.764;2023-06-22T05:46:47;21.30;99.90
26503;DHT22;14177;51.520;6.764;2023-06-22T05:49:15;21.30;99.90
26503;DHT22;14177;51.520;6.764;2023-06-22T05:51:42;21.30;99.90
26503;DHT22;14177;51.520;6.764;2023-06-22T05:54:09;21.30;99.90
26503;DHT22;14177;51.520;6.764;2023-06-22T05:56:36;21.30;99.90
26503;DHT22;14177;51.520;6.764;2023-06-22T05:59:05;21.30;99.90
26503;DHT22;14177;51.520;6.764;2023-06-22T06:01:32;21.30;99.90
26503;DHT22;14177;51.520;6.764;2023-06-22T06:04:03;21.30;99.90
26503;DHT22;14177;51.520;6.764;2023-06-22T06:06:33;21.30;99.90
26503;DHT22;14177;51.520;6.764;2023-06-22T06:09:01;21.30;99.90
26503;DHT22;14177;51.520;6.764;2023-06-22T06:11:28;21.30;99.90
26503;DHT22;14177;51.520;6.764;2023-06-22T06:13:55;21.30;99.90
26503;DHT22;14177;51.520;6.764;2023-06-22T06:16:22;21.30;99.90
26503;DHT22;14177;51.520;6.764;2023-06-22T06:18:49;21.30;99.90
26503;DHT22;14177;51.520;6.764;2023-06-22T06:21:17;21.30;99.90
26503;DHT22;14177;51.520;6.764;2023-06-22T06:23:43;21.30;99.90
26503;DHT22;14177;51.520;6.764;2023-06-22T06:26:10;21.30;99.90
26503;DHT22;14177;51.520;6.764;2023-06-22T06:28:37;21.30;99.90
26503;DHT22;14177;51.520;6.764;2023-06-22T06:31:04;21.40;99.90
26503;DHT22;14177;51.520;6.764;2023-06-22T06:33:34;21.30;99.90
26503;DHT22;14177;51.520;6.764;2023-06-22T06:36:01;21.30;99.90
26503;DHT22;14177;51.520;6.764;2023-06-22T06:38:30;21.30;99.90
26503;DHT22;14177;51.520;6.764;2023-06-22T06:40:58;21.40;99.90
26503;DHT22;14177;51.520;6.764;2023-06-22T06:43:25;21.30;99.90
26503;DHT22;14177;51.520;6.764;2023-06-22T06:45:53;21.30;99.90
26503;DHT22;14177;51.520;6.764;2023-06-22T06:48:20;21.20;99.90
26503;DHT22;14177;51.520;6.764;2023-06-22T06:50:46;21.20;99.90
26503;DHT22;14177;51.520;6.764;2023-06-22T06:53:13;21.10;99.90
26503;DHT22;14177;51.520;6.764;2023-06-22T06:55:40;21.10;99.90
26503;DHT22;14177;51.520;6.764;2023-06-22T06:58:07;21.00;99.90
26503;DHT22;14177;51.520;6.764;2023-06-22T07:00:36;20.90;99.90
26503;DHT22;14177;51.520;6.764;2023-06-22T07:03:03;20.90;99.90
26503;DHT22;14177;51.520;6.764;2023-06-22T07:05:30;20.90;99.90
26503;DHT22;14177;51.520;6.764;2023-06-22T07:07:57;20.90;99.90
26503;DHT22;14177;51.520;6.764;2023-06-22T07:10:24;20.90;99.90
26503;DHT22;14177;51.520;6.764;2023-06-22T07:12:51;20.90;99.90
26503;DHT22;14177;51.520;6.764;2023-06-22T07:15:18;20.90;99.90
26503;DHT22;14177;51.520;6.764;2023-06-22T07:17:45;20.90;99.90
26503;DHT22;14177;51.520;6.764;2023-06-22T07:20:12;20.90;99.90
26503;DHT22;14177;51.520;6.764;2023-06-22T07:22:40;21.00;99.90
26503;DHT22;14177;51.520;6.764;2023-06-22T07:25:09;21.00;99.90
26503;DHT22;14177;51.520;6.764;2023-06-22T07:27:38;21.00;99.90
26503;DHT22;14177;51.520;6.764;2023-06-22T07:30:09;21.00;99.90
26503;DHT22;14177;51.520;6.764;2023-06-22T07:32:37;21.00;99.90
26503;DHT22;14177;51.520;6.764;2023-06-22T07:35:04;21.00;99.90
26503;DHT22;14177;51.520;6.764;2023-06-22T07:37:33;21.00;99.90
26503;DHT22;14177;51.520;6.764;2023-06-22T07:40:01;21.10;99.90
26503;DHT22;14177;51.520;6.764;2023-06-22T07:42:32;21.10;99.90
26503;DHT22;14177;51.520;6.764;2023-06-22T07:45:00;21.10;99.90
26503;DHT22;14177;51.520;6.764;2023-06-22T07:47:27;21.10;99.90
26503;DHT22;14177;51.520;6.764;2023-06-22T07:49:55;21.20;99.90
26503;DHT22;14177;51.520;6.764;2023-06-22T07:52:24;21.20;99.90
26503;DHT22;14177;51.520;6.764;2023-06-22T07:54:54;21.30;99.90
26503;DHT22;14177;51.520;6.764;2023-06-22T07:57:21;21.40;99.90
26503;DHT22;14177;51.520;6.764;2023-06-22T07:59:48;21.40;99.90
26503;DHT22;14177;51.520;6.764;2023-06-22T08:02:15;21.50;99.90
26503;DHT22;14177;51.520;6.764;2023-06-22T08:04:42;21.50;99.90
26503;DHT22;14177;51.520;6.764;2023-06-22T08:07:09;21.60;99.90
26503;DHT22;14177;51.520;6.764;2023-06-22T08:09:37;21.60;99.90
26503;DHT22;14177;51.520;6.764;2023-06-22T08:12:04;21.60;99.90
26503;DHT22;14177;51.520;6.764;2023-06-22T08:14:32;21.60;99.90
26503;DHT22;14177;51.520;6.764;2023-06-22T08:17:02;21.60;99.90
26503;DHT22;14177;51.520;6.764;2023-06-22T08:19:29;21.70;99.90
26503;DHT22;14177;51.520;6.764;2023-06-22T08:21:57;21.70;99.90
26503;DHT22;14177;51.520;6.764;2023-06-22T08:24:24;21.70;99.90
26503;DHT22;14177;51.520;6.764;2023-06-22T08:26:51;21.80;99.90
26503;DHT22;14177;51.520;6.764;2023-06-22T08:29:18;21.80;99.90
26503;DHT22;14177;51.520;6.764;2023-06-22T08:31:45;21.90;99.90
26503;DHT22;14177;51.520;6.764;2023-06-22T08:34:12;22.00;99.90
26503;DHT22;14177;51.520;6.764;2023-06-22T08:36:43;22.00;99.90
26503;DHT22;14177;51.520;6.764;2023-06-22T08:39:15;22.10;99.90
26503;DHT22;14177;51.520;6.764;2023-06-22T08:41:42;22.10;99.90
26503;DHT22;14177;51.520;6.764;2023-06-22T08:44:09;22.10;99.90
26503;DHT22;14177;51.520;6.764;2023-06-22T08:46:35;22.10;99.90
26503;DHT22;14177;51.520;6.764;2023-06-22T08:49:03;22.20;99.90
26503;DHT22;14177;51.520;6.764;2023-06-22T08:51:30;22.20;99.90
26503;DHT22;14177;51.520;6.764;2023-06-22T08:53:57;22.20;99.90
26503;DHT22;14177;51.520;6.764;2023-06-22T08:56:24;22.20;99.90
26503;DHT22;14177;51.520;6.764;2023-06-22T08:58:51;22.20;99.90
26503;DHT22;14177;51.520;6.764;2023-06-22T09:01:21;22.20;99.90
26503;DHT22;14177;51.520;6.764;2023-06-22T09:03:48;22.20;99.90
26503;DHT22;14177;51.520;6.764;2023-06-22T09:06:21;22.30;99.90
26503;DHT22;14177;51.520;6.764;2023-06-22T09:08:48;22.30;99.90
26503;DHT22;14177;51.520;6.764;2023-06-22T09:11:16;22.40;99.90
26503;DHT22;14177;51.520;6.764;2023-06-22T09:13:43;22.40;99.90
26503;DHT22;14177;51.520;6.764;2023-06-22T09:16:10;22.50;99.90
26503;DHT22;14177;51.520;6.764;2023-06-22T09:18:38;22.50;99.90
26503;DHT22;14177;51.520;6.764;2023-06-22T09:21:05;22.50;99.90
26503;DHT22;14177;51.520;6.764;2023-06-22T09:23:32;22.50;99.90
26503;DHT22;14177;51.520;6.764;2023-06-22T09:25:58;22.60;99.90
26503;DHT22;14177;51.520;6.764;2023-06-22T09:28:25;22.70;99.90
26503;DHT22;14177;51.520;6.764;2023-06-22T09:30:52;22.80;99.90
26503;DHT22;14177;51.520;6.764;2023-06-22T09:33:25;22.80;99.90
26503;DHT22;14177;51.520;6.764;2023-06-22T09:35:52;22.80;99.90
26503;DHT22;14177;51.520;6.764;2023-06-22T09:38:19;22.80;99.90
26503;DHT22;14177;51.520;6.764;2023-06-22T09:40:46;22.80;99.90
26503;DHT22;14177;51.520;6.764;2023-06-22T09:43:13;22.80;99.90
26503;DHT22;14177;51.520;6.764;2023-06-22T09:45:40;22.90;99.90
26503;DHT22;14177;51.520;6.764;2023-06-22T09:48:09;22.90;99.90
26503;DHT22;14177;51.520;6.764;2023-06-22T09:50:37;23.00;99.90
26503;DHT22;14177;51.520;6.764;2023-06-22T09:53:04;23.00;99.90
26503;DHT22;14177;51.520;6.764;2023-06-22T09:55:31;23.00;99.90
26503;DHT22;14177;51.520;6.764;2023-06-22T09:57:57;23.10;99.90
26503;DHT22;14177;51.520;6.764;2023-06-22T10:00:24;23.20;99.90
26503;DHT22;14177;51.520;6.764;2023-06-22T10:02:53;23.30;99.90
26503;DHT22;14177;51.520;6.764;2023-06-22T10:05:23;23.50;99.90
26503;DHT22;14177;51.520;6.764;2023-06-22T10:07:51;23.70;99.90
26503;DHT22;14177;51.520;6.764;2023-06-22T10:10:18;23.90;99.90
26503;DHT22;14177;51.520;6.764;2023-06-22T10:12:48;24.10;99.90
26503;DHT22;14177;51.520;6.764;2023-06-22T10:15:21;24.40;99.90
26503;DHT22;14177;51.520;6.764;2023-06-22T10:17:48;24.70;99.90
26503;DHT22;14177;51.520;6.764;2023-06-22T10:20:15;25.10;99.90
26503;DHT22;14177;51.520;6.764;2023-06-22T10:22:45;25.40;99.90
26503;DHT22;14177;51.520;6.764;2023-06-22T10:25:13;25.70;99.90
26503;DHT22;14177;51.520;6.764;2023-06-22T10:27:40;25.90;99.90
26503;DHT22;14177;51.520;6.764;2023-06-22T10:30:11;26.00;99.90
26503;DHT22;14177;51.520;6.764;2023-06-22T10:32:43;26.10;99.90
26503;DHT22;14177;51.520;6.764;2023-06-22T10:35:10;26.30;99.90
26503;DHT22;14177;51.520;6.764;2023-06-22T10:37:39;26.40;99.90
26503;DHT22;14177;51.520;6.764;2023-06-22T10:40:07;26.50;99.90
26503;DHT22;14177;51.520;6.764;2023-06-22T10:42:34;26.60;99.90
26503;DHT22;14177;51.520;6.764;2023-06-22T10:45:01;26.70;99.90
26503;DHT22;14177;51.520;6.764;2023-06-22T10:47:29;26.70;99.90
26503;DHT22;14177;51.520;6.764;2023-06-22T10:49:56;26.70;99.90
26503;DHT22;14177;51.520;6.764;2023-06-22T10:52:22;26.60;99.90
26503;DHT22;14177;51.520;6.764;2023-06-22T10:54:49;26.50;99.90
26503;DHT22;14177;51.520;6.764;2023-06-22T10:57:16;26.30;99.90
26503;DHT22;14177;51.520;6.764;2023-06-22T10:59:43;26.30;99.90
26503;DHT22;14177;51.520;6.764;2023-06-22T11:02:10;26.30;99.90
26503;DHT22;14177;51.520;6.764;2023-06-22T11:04:36;26.20;99.90
26503;DHT22;14177;51.520;6.764;2023-06-22T11:07:04;26.10;99.90
26503;DHT22;14177;51.520;6.764;2023-06-22T11:09:31;26.00;99.90
26503;DHT22;14177;51.520;6.764;2023-06-22T11:11:58;26.00;99.90
26503;DHT22;14177;51.520;6.764;2023-06-22T11:14:26;25.90;99.90
26503;DHT22;14177;51.520;6.764;2023-06-22T11:16:53;25.90;99.90
26503;DHT22;14177;51.520;6.764;2023-06-22T11:19:20;25.80;99.90
26503;DHT22;14177;51.520;6.764;2023-06-22T11:21:47;25.80;99.90
26503;DHT22;14177;51.520;6.764;2023-06-22T11:24:14;25.80;99.90
26503;DHT22;14177;51.520;6.764;2023-06-22T11:26:42;25.60;99.90
26503;DHT22;14177;51.520;6.764;2023-06-22T11:29:09;25.60;99.90
26503;DHT22;14177;51.520;6.764;2023-06-22T11:31:53;25.60;99.90
26503;DHT22;14177;51.520;6.764;2023-06-22T11:34:20;25.60;99.90
26503;DHT22;14177;51.520;6.764;2023-06-22T11:36:47;25.60;99.90
26503;DHT22;14177;51.520;6.764;2023-06-22T11:39:14;25.60;99.90
26503;DHT22;14177;51.520;6.764;2023-06-22T11:41:41;25.50;99.90
26503;DHT22;14177;51.520;6.764;2023-06-22T11:44:08;25.50;99.90
26503;DHT22;14177;51.520;6.764;2023-06-22T11:46:36;25.40;99.90
26503;DHT22;14177;51.520;6.764;2023-06-22T11:49:03;25.40;99.90
26503;DHT22;14177;51.520;6.764;2023-06-22T11:51:30;25.30;99.90
26503;DHT22;14177;51.520;6.764;2023-06-22T11:53:58;25.20;99.90
26503;DHT22;14177;51.520;6.764;2023-06-22T11:56:25;25.10;99.90
26503;DHT22;14177;51.520;6.764;2023-06-22T11:58:53;24.90;99.90
26503;DHT22;14177;51.520;6.764;2023-06-22T12:01:20;24.80;99.90
26503;DHT22;14177;51.520;6.764;2023-06-22T12:03:48;24.70;99.90
26503;DHT22;14177;51.520;6.764;2023-06-22T12:06:15;24.60;99.90
26503;DHT22;14177;51.520;6.764;2023-06-22T12:08:42;24.50;99.90
26503;DHT22;14177;51.520;6.764;2023-06-22T12:11:09;24.40;99.90
26503;DHT22;14177;51.520;6.764;2023-06-22T12:13:36;24.30;99.90
26503;DHT22;14177;51.520;6.764;2023-06-22T12:16:03;24.20;99.90
26503;DHT22;14177;51.520;6.764;2023-06-22T12:18:30;24.10;99.90
26503;DHT22;14177;51.520;6.764;2023-06-22T12:20:56;24.00;99.90
26503;DHT22;14177;51.520;6.764;2023-06-22T12:23:23;24.00;99.90
26503;DHT22;14177;51.520;6.764;2023-06-22T12:25:50;23.90;99.90
26503;DHT22;14177;51.520;6.764;2023-06-22T12:28:17;23.90;99.90
26503;DHT22;14177;51.520;6.764;2023-06-22T12:30:44;23.90;99.90
26503;DHT22;14177;51.520;6.764;2023-06-22T12:33:11;23.90;99.90
26503;DHT22;14177;51.520;6.764;2023-06-22T12:35:38;24.00;99.90
26503;DHT22;14177;51.520;6.764;2023-06-22T12:38:05;24.20;99.90
26503;DHT22;14177;51.520;6.764;2023-06-22T12:40:33;24.50;99.90
26503;DHT22;14177;51.520;6.764;2023-06-22T12:43:00;25.00;99.90
26503;DHT22;14177;51.520;6.764;2023-06-22T12:45:28;25.40;99.90
26503;DHT22;14177;51.520;6.764;2023-06-22T12:47:58;25.70;99.90
26503;DHT22;14177;51.520;6.764;2023-06-22T12:50:26;25.70;99.90
26503;DHT22;14177;51.520;6.764;2023-06-22T12:52:54;25.60;99.90
26503;DHT22;14177;51.520;6.764;2023-06-22T12:55:20;25.60;99.90
26503;DHT22;14177;51.520;6.764;2023-06-22T12:57:48;25.50;99.90
26503;DHT22;14177;51.520;6.764;2023-06-22T13:00:15;25.50;99.90
26503;DHT22;14177;51.520;6.764;2023-06-22T13:02:42;25.50;99.90
26503;DHT22;14177;51.520;6.764;2023-06-22T13:05:09;25.40;99.90
26503;DHT22;14177;51.520;6.764;2023-06-22T13:07:36;25.40;99.90
26503;DHT22;14177;51.520;6.764;2023-06-22T13:10:05;25.30;99.90
26503;DHT22;14177;51.520;6.764;2023-06-22T13:12:32;25.20;99.90
26503;DHT22;14177;51.520;6.764;2023-06-22T13:14:59;25.30;99.90
26503;DHT22;14177;51.520;6.764;2023-06-22T13:17:26;25.20;99.90
26503;DHT22;14177;51.520;6.764;2023-06-22T13:19:53;25.20;99.90
26503;DHT22;14177;51.520;6.764;2023-06-22T13:22:33;25.10;99.90
26503;DHT22;14177;51.520;6.764;2023-06-22T13:25:06;24.90;99.90
26503;DHT22;14177;51.520;6.764;2023-06-22T13:27:33;24.80;99.90
26503;DHT22;14177;51.520;6.764;2023-06-22T13:30:01;24.80;99.90
26503;DHT22;14177;51.520;6.764;2023-06-22T13:32:29;24.70;99.90
26503;DHT22;14177;51.520;6.764;2023-06-22T13:34:56;24.70;99.90
26503;DHT22;14177;51.520;6.764;2023-06-22T13:37:23;24.60;99.90
26503;DHT22;14177;51.520;6.764;2023-06-22T13:39:50;24.40;99.90
26503;DHT22;14177;51.520;6.764;2023-06-22T13:42:17;24.40;99.90
26503;DHT22;14177;51.520;6.764;2023-06-22T13:44:44;24.30;99.90
26503;DHT22;14177;51.520;6.764;2023-06-22T13:47:12;24.20;99.90
26503;DHT22;14177;51.520;6.764;2023-06-22T13:49:38;24.10;99.90
26503;DHT22;14177;51.520;6.764;2023-06-22T13:52:05;24.10;99.90
26503;DHT22;14177;51.520;6.764;2023-06-22T13:54:37;24.20;99.90
26503;DHT22;14177;51.520;6.764;2023-06-22T13:57:05;24.20;99.90
26503;DHT22;14177;51.520;6.764;2023-06-22T13:59:32;24.30;99.90
26503;DHT22;14177;51.520;6.764;2023-06-22T14:01:59;24.30;99.90
26503;DHT22;14177;51.520;6.764;2023-06-22T14:04:26;24.30;99.90
26503;DHT22;14177;51.520;6.764;2023-06-22T14:06:55;24.40;99.90
26503;DHT22;14177;51.520;6.764;2023-06-22T14:09:42;24.40;99.90
26503;DHT22;14177;51.520;6.764;2023-06-22T14:12:10;24.60;99.90
26503;DHT22;14177;51.520;6.764;2023-06-22T14:14:37;24.70;99.90
26503;DHT22;14177;51.520;6.764;2023-06-22T14:17:10;24.80;99.90
26503;DHT22;14177;51.520;6.764;2023-06-22T14:19:37;24.80;99.90
26503;DHT22;14177;51.520;6.764;2023-06-22T14:22:04;24.80;99.90
26503;DHT22;14177;51.520;6.764;2023-06-22T14:24:31;24.80;99.90
26503;DHT22;14177;51.520;6.764;2023-06-22T14:26:58;24.80;99.90
26503;DHT22;14177;51.520;6.764;2023-06-22T14:29:26;24.80;99.90
26503;DHT22;14177;51.520;6.764;2023-06-22T14:31:54;24.70;99.90
26503;DHT22;14177;51.520;6.764;2023-06-22T14:34:21;24.70;99.90
26503;DHT22;14177;51.520;6.764;2023-06-22T14:36:47;24.60;99.90
26503;DHT22;14177;51.520;6.764;2023-06-22T14:39:15;24.60;99.90
26503;DHT22;14177;51.520;6.764;2023-06-22T14:41:41;24.60;99.90
26503;DHT22;14177;51.520;6.764;2023-06-22T14:44:08;24.50;99.90
26503;DHT22;14177;51.520;6.764;2023-06-22T14:46:35;24.40;99.90
26503;DHT22;14177;51.520;6.764;2023-06-22T14:49:02;24.30;99.90
26503;DHT22;14177;51.520;6.764;2023-06-22T14:51:29;24.30;99.90
26503;DHT22;14177;51.520;6.764;2023-06-22T14:53:55;24.30;99.90
26503;DHT22;14177;51.520;6.764;2023-06-22T14:56:25;24.30;99.90
26503;DHT22;14177;51.520;6.764;2023-06-22T14:58:52;24.20;99.90
26503;DHT22;14177;51.520;6.764;2023-06-22T15:01:18;24.20;99.90
26503;DHT22;14177;51.520;6.764;2023-06-22T15:03:46;24.10;99.90
26503;DHT22;14177;51.520;6.764;2023-06-22T15:06:13;24.00;99.90
26503;DHT22;14177;51.520;6.764;2023-06-22T15:08:41;24.00;99.90
26503;DHT22;14177;51.520;6.764;2023-06-22T15:11:08;23.90;99.90
26503;DHT22;14177;51.520;6.764;2023-06-22T15:13:42;23.80;99.90
26503;DHT22;14177;51.520;6.764;2023-06-22T15:16:09;23.80;99.90
26503;DHT22;14177;51.520;6.764;2023-06-22T15:18:36;23.80;99.90
26503;DHT22;14177;51.520;6.764;2023-06-22T15:21:05;23.90;99.90
26503;DHT22;14177;51.520;6.764;2023-06-22T15:23:32;23.80;99.90
26503;DHT22;14177;51.520;6.764;2023-06-22T15:26:02;23.80;99.90
26503;DHT22;14177;51.520;6.764;2023-06-22T15:28:31;23.80;99.90
26503;DHT22;14177;51.520;6.764;2023-06-22T15:31:00;23.80;99.90
26503;DHT22;14177;51.520;6.764;2023-06-22T15:33:27;23.70;99.90
26503;DHT22;14177;51.520;6.764;2023-06-22T15:35:54;23.60;99.90
26503;DHT22;14177;51.520;6.764;2023-06-22T15:38:22;23.60;99.90
26503;DHT22;14177;51.520;6.764;2023-06-22T15:40:49;23.50;99.90
26503;DHT22;14177;51.520;6.764;2023-06-22T15:43:16;23.40;99.90
26503;DHT22;14177;51.520;6.764;2023-06-22T15:45:42;23.40;99.90
26503;DHT22;14177;51.520;6.764;2023-06-22T15:48:09;23.30;99.90